Flight Track Log - Related Links

Times and Time Zones

All times are in EDT time to prevent confusion due to time zone crossing. See the N90CJ flight status page for this flight to view local times or setup timezone preferences in your user account.

Time Position Orientation Groundspeed Altitude Reporting Facility
EDT Latitude Longitude Course Direction KTS MPH feet Rate Location/Type
Wed 02:43:50 PM 36.9361 -87.4914 North 252 290 4,400  Level Memphis Center
Wed 02:44:20 PM 36.9633 -87.4906 North 391 450 4,800 1,933 Climbing Memphis Center
Wed 02:45:20 PM 37.0328 -87.5219 340° North 267 307 7,300 2,300 Climbing Memphis Center
Wed 02:46:20 PM 37.0981 -87.5506 341° North 267 307 9,400 1,850 Climbing Memphis Center
Wed 02:47:20 PM 37.1675 -87.5794 342° North 257 296 11,000 1,922 Climbing Memphis Center
Wed 02:48:53 PM 37.2919 -87.6308 342° North 299 344 14,300 2,165 Climbing Kansas City Center
Wed 02:49:33 PM 37.3394 -87.6517 341° North 297 342 15,800 2,235 Climbing Indianapolis Center
Wed 02:50:35 PM 37.4194 -87.6856 341° North 298 343 18,100 2,419 Climbing Indianapolis Center
Wed 02:51:37 PM 37.5128 -87.7253 341° North 302 348 20,800 2,468 Climbing Indianapolis Center
Wed 02:52:39 PM 37.5939 -87.7600 341° North 304 350 23,200 2,226 Climbing Indianapolis Center
Wed 02:53:41 PM 37.6722 -87.7928 342° North 296 341 25,400 2,032 Climbing Indianapolis Center
Wed 02:54:43 PM 37.7492 -87.8281 340° North 292 336 27,400 1,839 Climbing Indianapolis Center
Wed 02:55:45 PM 37.8261 -87.8606 342° North 293 337 29,200 1,790 Climbing Indianapolis Center
Wed 02:56:47 PM 37.9036 -87.8953 341° North 293 337 31,100 1,929 Climbing Indianapolis Center
Wed 02:57:09 PM 37.9350 -87.9092 341° North 294 338 31,900 1,929 Climbing Kansas City Center
Wed 02:58:11 PM 38.0103 -87.9406 342° North 289 333 33,800 1,742 Climbing Kansas City Center
Wed 02:59:13 PM 38.0853 -87.9731 341° North 284 327 35,500 1,588 Climbing Kansas City Center
Wed 02:59:53 PM 38.1436 -87.9986 341° North 279 321 36,500 1,223 Climbing Indianapolis Center
Wed 03:00:56 PM 38.2194 -88.0328 341° North 286 329 37,600 726 Climbing Indianapolis Center
Wed 03:01:57 PM 38.2997 -88.0678 341° North 298 343 38,000 195 Climbing Indianapolis Center
Wed 03:02:59 PM 38.3872 -88.1075 340° North 326 375 38,000  Level Indianapolis Center
Wed 03:03:21 PM 38.4228 -88.1228 341° North 322 371 38,000  Level Kansas City Center
Wed 03:04:23 PM 38.5161 -88.1642 341° North 340 391 38,000  Level Kansas City Center
Wed 03:05:26 PM 38.6111 -88.2056 341° North 348 400 38,000 624 Level Kansas City Center
Wed 03:06:28 PM 38.7028 -88.2469 341° North 350 403 39,300 968 Climbing Kansas City Center
Wed 03:07:30 PM 38.7911 -88.2858 341° North 343 395 40,000 339 Climbing Kansas City Center
Wed 03:08:32 PM 38.8811 -88.3275 340° North 341 392 40,000  Level Kansas City Center
Wed 03:09:12 PM 38.9583 -88.3606 342° North 357 411 40,000  Level Indianapolis Center
Wed 03:09:34 PM 38.9961 -88.3792 339° North 356 410 40,000  Level Kansas City Center
Wed 03:10:36 PM 39.0953 -88.4228 341° North 369 425 40,000  Level Kansas City Center
Wed 03:11:38 PM 39.1939 -88.4667 341° North 372 428 40,000  Level Kansas City Center
Wed 03:12:40 PM 39.2928 -88.5114 341° North 375 432 40,000  Level Kansas City Center
Wed 03:13:42 PM 39.3928 -88.5564 341° North 378 435 40,000  Level Kansas City Center
Wed 03:14:44 PM 39.4928 -88.6031 340° North 381 438 40,000  Level Kansas City Center
Wed 03:15:46 PM 39.5919 -88.6472 341° North 379 436 40,000  Level Kansas City Center
Wed 03:16:48 PM 39.7106 -88.7011 341° North 375 432 40,000  Level Kansas City Center
Wed 03:17:50 PM 39.8086 -88.7472 340° North 376 433 40,000  Level Kansas City Center
Wed 03:18:52 PM 39.9064 -88.7903 341° North 373 429 40,000  Level Kansas City Center
Wed 03:19:54 PM 40.0044 -88.8378 340° North 375 432 40,000  Level Kansas City Center
Wed 03:20:56 PM 40.1039 -88.8828 341° North 376 433 40,000  Level Kansas City Center
Wed 03:21:13 PM 40.1422 -88.9025 339° North 378 435 40,000  Level Chicago Center
Wed 03:22:15 PM 40.2394 -88.9475 341° North 375 432 40,000  Level Chicago Center
Wed 03:23:17 PM 40.3381 -88.9931 341° North 377 434 40,000  Level Chicago Center
Wed 03:24:19 PM 40.4361 -89.0397 340° North 376 433 40,000  Level Chicago Center
Wed 03:25:22 PM 40.5344 -89.0844 341° North 375 432 40,000  Level Chicago Center
Wed 03:26:24 PM 40.6311 -89.1306 340° North 372 428 40,000  Level Chicago Center
Wed 03:27:26 PM 40.7494 -89.1864 340° North 376 433 40,000 -242 Level Chicago Center
Wed 03:28:28 PM 40.8472 -89.2333 340° North 377 434 39,500 -726 Descending Chicago Center
Wed 03:29:30 PM 40.9447 -89.2797 340° North 374 430 38,500 -919 Descending Chicago Center
Wed 03:30:32 PM 41.0419 -89.3256 340° North 374 430 37,600 -1,065 Descending Chicago Center
Wed 03:31:34 PM 41.1367 -89.3714 340° North 366 421 36,300 -1,536 Descending Chicago Center
Wed 03:32:37 PM 41.2500 -89.4242 341° North 361 415 34,400 -1,839 Descending Chicago Center
Wed 03:33:38 PM 41.3417 -89.4692 340° North 354 407 32,500 -1,854 Descending Chicago Center
Wed 03:34:40 PM 41.4350 -89.5147 340° North 357 411 30,600 -1,839 Descending Chicago Center
Wed 03:35:42 PM 41.5289 -89.5583 341° North 360 414 28,700 -1,872 Descending Chicago Center
Wed 03:36:45 PM 41.6239 -89.6056 340° North 363 418 26,700 -2,112 Descending Chicago Center
Wed 03:37:47 PM 41.7364 -89.6594 340° North 359 413 24,300 -2,032 Descending Chicago Center
Wed 03:38:49 PM 41.8186 -89.7011 339° North 352 405 22,500 -2,032 Descending Chicago Center
Wed 03:39:51 PM 41.9278 -89.7544 340° North 349 402 20,100 -2,129 Descending Chicago Center
Wed 03:40:53 PM 42.0181 -89.7992 340° North 349 402 18,100 -1,790 Descending Chicago Center
Wed 03:41:55 PM 42.1050 -89.8442 339° North 345 397 16,400 -1,742 Descending Chicago Center
Wed 03:42:57 PM 42.1925 -89.8867 340° North 336 387 14,500 -1,210 Descending Chicago Center
Wed 03:43:59 PM 42.2803 -89.9308 340° North 311 358 13,900 -1,016 Descending Chicago Center
Wed 03:45:01 PM 42.3542 -89.9681 340° North 289 333 12,400 -1,440 Descending Chicago Center
Wed 03:46:04 PM 42.4339 -90.0081 340° North 304 350 10,900 -1,344 Descending Chicago Center
Wed 03:47:06 PM 42.5042 -90.0436 340° North 280 322 9,600 -1,597 Descending Chicago Center
Wed 03:48:08 PM 42.5892 -90.0869 339° North 275 316 7,600 -1,790 Descending Chicago Center
Wed 03:49:10 PM 42.6603 -90.1231 340° North 277 319 5,900 -1,258 Descending Chicago Center
Wed 03:50:12 PM 42.7281 -90.1575 340° North 269 310 5,000 -871 Descending Chicago Center

Login

Don't have an account? Register now (free) for customized features, flight alerts, and more!